createdAt,value
2018-09-18T00:00:24.828Z,13.04
2018-09-18T00:01:24.781Z,13.05
2018-09-18T00:02:24.861Z,13.02
2018-09-18T00:03:24.694Z,13.02
2018-09-18T00:04:24.979Z,12.96
2018-09-18T00:05:24.662Z,13.05
2018-09-18T00:06:24.646Z,13.02
2018-09-18T00:07:24.679Z,13.02
2018-09-18T00:08:24.646Z,12.96
2018-09-18T00:09:24.601Z,12.98
2018-09-18T00:10:24.632Z,12.99
2018-09-18T00:11:24.564Z,12.98
2018-09-18T00:12:24.543Z,12.96
2018-09-18T00:13:24.528Z,13.01
2018-09-18T00:14:24.513Z,12.96
2018-09-18T00:15:24.687Z,12.88
2018-09-18T00:17:24.613Z,12.88
2018-09-18T00:21:24.756Z,12.88
2018-09-18T00:22:24.380Z,12.86
2018-09-18T00:23:24.411Z,12.84
2018-09-18T00:24:24.417Z,12.88
2018-09-18T00:25:25.965Z,12.90
2018-09-18T00:26:24.316Z,12.93
2018-09-18T00:27:24.293Z,12.88
2018-09-18T00:28:24.275Z,12.90
2018-09-18T00:29:24.309Z,12.95
2018-09-18T00:30:24.244Z,12.88
2018-09-18T00:31:24.595Z,12.91
2018-09-18T00:32:24.285Z,12.90
2018-09-18T00:33:24.284Z,12.88
2018-09-18T00:34:24.249Z,12.83
2018-09-18T00:35:24.291Z,12.83
2018-09-18T00:36:24.214Z,12.73
2018-09-18T00:37:24.130Z,12.71
2018-09-18T00:39:24.140Z,12.73
2018-09-18T00:40:24.074Z,12.73
2018-09-18T00:41:24.157Z,12.77
2018-09-18T00:42:24.039Z,12.73
2018-09-18T00:43:24.037Z,12.69
2018-09-18T00:44:24.008Z,12.66
2018-09-18T00:46:23.973Z,12.79
2018-09-18T00:47:24.079Z,12.71
2018-09-18T00:48:23.988Z,12.73
2018-09-18T00:49:23.944Z,12.69
2018-09-18T00:50:23.905Z,12.69
2018-09-18T00:51:23.890Z,12.76
2018-09-18T00:52:23.946Z,12.71
2018-09-18T00:53:23.907Z,12.71
2018-09-18T00:54:23.853Z,12.66
2018-09-18T00:55:23.922Z,12.77
2018-09-18T00:56:23.802Z,12.66
2018-09-18T00:57:23.786Z,12.65
2018-09-18T00:58:23.771Z,12.66
2018-09-18T00:59:23.903Z,12.62
2018-09-18T01:01:23.770Z,12.68
2018-09-18T01:02:23.706Z,12.66
2018-09-18T01:03:23.685Z,12.65
2018-09-18T01:04:24.042Z,12.68
2018-09-18T01:05:23.829Z,12.66
2018-09-18T01:06:23.706Z,12.65
2018-09-18T01:07:23.616Z,12.65
2018-09-18T01:08:23.600Z,12.71
2018-09-18T01:09:23.654Z,12.72
2018-09-18T01:10:23.638Z,12.72
2018-09-18T01:11:23.685Z,12.71
2018-09-18T01:12:23.531Z,12.71
2018-09-18T01:13:23.714Z,12.71
2018-09-18T01:14:23.571Z,12.71
2018-09-18T01:15:23.557Z,12.71
2018-09-18T01:16:23.462Z,12.71
2018-09-18T01:17:23.572Z,12.68
2018-09-18T01:18:23.504Z,12.76
2018-09-18T01:19:23.480Z,12.72
2018-09-18T01:20:23.394Z,12.71
2018-09-18T01:21:23.426Z,12.71
2018-09-18T01:22:23.364Z,12.73
2018-09-18T01:23:23.395Z,12.73
2018-09-18T01:24:23.331Z,12.66
2018-09-18T01:25:23.327Z,12.65
2018-09-18T01:26:23.294Z,12.66
2018-09-18T01:27:23.627Z,12.65
2018-09-18T01:28:23.261Z,12.61
2018-09-18T01:29:23.398Z,12.62
2018-09-18T01:30:23.304Z,12.58
2018-09-18T01:31:23.208Z,12.59
2018-09-18T01:32:23.267Z,12.62
2018-09-18T01:33:23.247Z,12.48
2018-09-18T01:34:23.157Z,12.63
2018-09-18T01:35:23.191Z,12.53
2018-09-18T01:36:23.196Z,12.50
2018-09-18T01:37:23.176Z,12.51
2018-09-18T01:38:23.161Z,12.53
2018-09-18T01:39:23.072Z,12.50
2018-09-18T01:40:23.127Z,12.55
2018-09-18T01:41:23.089Z,12.58
2018-09-18T01:42:23.097Z,12.55
2018-09-18T01:43:23.010Z,12.61
2018-09-18T01:44:23.061Z,12.48
2018-09-18T01:45:23.120Z,12.53
2018-09-18T01:46:22.960Z,12.62
2018-09-18T01:47:23.057Z,12.58
2018-09-18T01:48:22.918Z,12.51
2018-09-18T01:49:22.901Z,12.47
2018-09-18T01:50:24.155Z,12.38
2018-09-18T01:51:22.865Z,12.54
2018-09-18T01:52:22.921Z,12.46
2018-09-18T01:53:22.953Z,12.44
2018-09-18T01:54:22.815Z,12.41
2018-09-18T01:55:22.798Z,12.47
2018-09-18T01:56:22.853Z,12.46
2018-09-18T01:57:22.838Z,12.47
2018-09-18T01:58:22.821Z,12.50
2018-09-18T01:59:22.783Z,12.44
2018-09-18T02:01:22.696Z,12.43
2018-09-18T02:02:22.730Z,12.47
2018-09-18T02:03:22.735Z,12.43
2018-09-18T02:04:22.922Z,12.43
2018-09-18T02:05:22.751Z,12.41
2018-09-18T02:06:22.696Z,12.40
2018-09-18T02:07:22.593Z,12.47
2018-09-18T02:08:22.577Z,12.43
2018-09-18T02:09:22.621Z,12.43
2018-09-18T02:10:22.875Z,12.43
2018-09-18T02:11:22.650Z,12.43
2018-09-18T02:12:22.506Z,12.43
2018-09-18T02:13:22.496Z,12.44
2018-09-18T02:14:22.547Z,12.47
2018-09-18T02:15:22.651Z,12.43
2018-09-18T02:16:22.536Z,12.47
2018-09-18T02:17:22.660Z,12.46
2018-09-18T02:18:22.538Z,12.41
2018-09-18T02:20:22.682Z,12.29
2018-09-18T02:21:22.417Z,12.35
2018-09-18T02:22:22.337Z,12.29
2018-09-18T02:23:22.384Z,12.33
2018-09-18T02:24:22.358Z,12.32
2018-09-18T02:25:22.284Z,12.30
2018-09-18T02:26:22.341Z,12.28
2018-09-18T02:27:22.320Z,12.29
2018-09-18T02:28:22.403Z,12.23
2018-09-18T02:29:22.314Z,12.15
2018-09-18T02:30:22.273Z,12.14
2018-09-18T02:31:22.259Z,12.15
2018-09-18T02:32:22.248Z,12.15
2018-09-18T02:33:22.144Z,12.13
2018-09-18T02:34:22.128Z,12.08
2018-09-18T02:35:22.160Z,12.04
2018-09-18T02:36:22.102Z,12.10
2018-09-18T02:37:22.076Z,12.04
2018-09-18T02:38:22.057Z,12.00
2018-09-18T02:39:22.042Z,12.03
2018-09-18T02:40:22.028Z,11.96
2018-09-18T02:41:22.129Z,11.91
2018-09-18T02:42:22.164Z,11.87
2018-09-18T02:43:21.974Z,11.93
2018-09-18T02:44:22.025Z,11.88
2018-09-18T02:45:22.009Z,11.99
2018-09-18T02:46:22.003Z,12.03
2018-09-18T02:47:21.953Z,12.15
2018-09-18T02:48:21.884Z,12.15
2018-09-18T02:49:21.867Z,12.25
2018-09-18T02:50:21.851Z,12.23
2018-09-18T02:51:21.985Z,12.25
2018-09-18T02:52:21.868Z,12.28
2018-09-18T02:53:22.151Z,12.35
2018-09-18T02:54:21.783Z,12.46
2018-09-18T02:55:21.821Z,12.44
2018-09-18T02:57:22.078Z,12.47
2018-09-18T02:58:21.738Z,12.50
2018-09-18T02:59:21.845Z,12.55
2018-09-18T03:00:21.684Z,12.53
2018-09-18T03:01:21.670Z,12.43
2018-09-18T03:02:21.708Z,12.46
2018-09-18T03:03:21.643Z,12.33
2018-09-18T03:04:21.666Z,12.26
2018-09-18T03:05:21.774Z,12.26
2018-09-18T03:06:21.756Z,12.18
2018-09-18T03:07:21.620Z,12.08
2018-09-18T03:08:21.599Z,12.10
2018-09-18T03:09:21.530Z,12.04
2018-09-18T03:10:21.516Z,11.95
2018-09-18T03:11:21.701Z,11.95
2018-09-18T03:12:21.554Z,11.85
2018-09-18T03:13:21.540Z,11.91
2018-09-18T03:14:21.787Z,11.85
2018-09-18T03:15:21.629Z,11.82
2018-09-18T03:16:21.403Z,11.74
2018-09-18T03:17:21.552Z,11.70
2018-09-18T03:18:21.376Z,11.74
2018-09-18T03:19:21.434Z,11.76
2018-09-18T03:20:21.426Z,11.73
2018-09-18T03:22:21.681Z,11.59
2018-09-18T03:23:21.409Z,11.58
2018-09-18T03:30:21.642Z,11.46
2018-09-18T03:31:21.315Z,11.43
2018-09-18T03:33:21.160Z,11.71
2018-09-18T03:34:21.480Z,11.91
2018-09-18T03:35:21.186Z,12.23
2018-09-18T03:36:21.115Z,12.30
2018-09-18T03:37:21.043Z,12.44
2018-09-18T03:38:21.028Z,12.55
2018-09-18T03:39:21.023Z,12.69
2018-09-18T03:40:20.986Z,12.72
2018-09-18T03:41:20.975Z,12.91
2018-09-18T03:42:21.001Z,13.01
2018-09-18T03:43:20.998Z,13.08
2018-09-18T03:44:20.930Z,13.06
2018-09-18T03:45:21.066Z,13.17
2018-09-18T03:46:21.041Z,13.20
2018-09-18T03:47:20.961Z,13.32
2018-09-18T03:48:21.185Z,13.30
2018-09-18T03:49:20.889Z,13.39
2018-09-18T03:50:20.873Z,13.45
2018-09-18T03:51:20.831Z,13.42
2018-09-18T03:52:20.826Z,13.54
2018-09-18T03:53:20.966Z,13.49
2018-09-18T03:54:20.945Z,13.58
2018-09-18T03:55:20.945Z,13.45
2018-09-18T03:56:20.866Z,13.46
2018-09-18T03:57:20.750Z,13.55
2018-09-18T03:58:20.725Z,13.45
2018-09-18T03:59:20.675Z,13.49
2018-09-18T04:00:20.692Z,13.42
2018-09-18T04:01:20.687Z,13.39
2018-09-18T04:02:20.735Z,13.32
2018-09-18T04:03:20.645Z,13.30
2018-09-18T04:04:20.640Z,13.30
2018-09-18T04:07:21.353Z,13.06
2018-09-18T04:08:20.565Z,13.02
2018-09-18T04:09:20.554Z,12.93
2018-09-18T04:10:20.530Z,12.86
2018-09-18T04:11:20.715Z,12.77
2018-09-18T04:12:20.443Z,12.73
2018-09-18T04:13:20.475Z,12.55
2018-09-18T04:14:20.649Z,12.54
2018-09-18T04:15:20.550Z,12.40
2018-09-18T04:16:20.475Z,12.35
2018-09-18T04:17:20.467Z,12.33
2018-09-18T04:18:20.631Z,12.32
2018-09-18T04:19:20.516Z,12.28
2018-09-18T04:20:20.540Z,12.15
2018-09-18T04:21:20.430Z,12.18
2018-09-18T04:22:20.591Z,12.08
2018-09-18T04:23:20.370Z,11.97
2018-09-18T04:24:20.908Z,11.96
2018-09-18T04:25:20.606Z,11.91
2018-09-18T04:26:20.366Z,11.88
2018-09-18T04:27:20.399Z,11.79
2018-09-18T04:28:20.225Z,11.74
2018-09-18T04:29:20.367Z,11.73
2018-09-18T04:30:20.285Z,11.61
2018-09-18T04:31:20.250Z,11.59
2018-09-18T04:32:20.151Z,11.56
2018-09-18T04:33:20.086Z,11.51
2018-09-18T04:34:20.156Z,11.48
2018-09-18T04:35:20.043Z,11.52
2018-09-18T04:36:20.328Z,11.38
2018-09-18T04:37:20.182Z,11.38
2018-09-18T04:38:21.117Z,11.45
2018-09-18T04:40:20.087Z,11.33
2018-09-18T04:41:20.038Z,11.31
2018-09-18T04:42:20.120Z,11.36
2018-09-18T04:43:20.056Z,11.37
2018-09-18T04:44:20.281Z,11.37
2018-09-18T04:45:19.917Z,11.36
2018-09-18T04:46:19.906Z,11.40
2018-09-18T04:47:19.833Z,11.45
2018-09-18T04:48:19.920Z,11.40
2018-09-18T04:49:19.866Z,11.46
2018-09-18T04:50:19.798Z,11.49
2018-09-18T04:51:19.799Z,11.54
2018-09-18T04:52:19.823Z,11.59
2018-09-18T04:53:19.748Z,11.58
2018-09-18T04:54:20.013Z,11.58
2018-09-18T04:56:19.679Z,11.51
2018-09-18T04:57:20.058Z,11.54
2018-09-18T04:59:19.845Z,11.45
2018-09-18T05:00:20.260Z,11.40
2018-09-18T05:01:20.141Z,11.34
2018-09-18T05:02:19.834Z,11.33
2018-09-18T05:03:19.931Z,11.38
2018-09-18T05:04:19.786Z,11.34
2018-09-18T05:05:19.602Z,11.45
2018-09-18T05:07:19.861Z,11.48
2018-09-18T05:08:19.529Z,11.54
2018-09-18T05:09:19.696Z,11.58
2018-09-18T05:10:19.617Z,11.71
2018-09-18T05:11:19.891Z,11.82
2018-09-18T05:13:19.730Z,12.04
2018-09-18T05:14:19.840Z,12.04
2018-09-18T05:15:19.437Z,12.18
2018-09-18T05:16:19.453Z,12.23
2018-09-18T05:17:19.380Z,12.33
2018-09-18T05:18:19.366Z,12.32
2018-09-18T05:19:19.421Z,12.48
2018-09-18T05:20:19.610Z,12.41
2018-09-18T05:21:19.247Z,12.54
2018-09-18T05:22:19.263Z,12.59
2018-09-18T05:23:19.281Z,12.61
2018-09-18T05:24:19.247Z,12.50
2018-09-18T05:25:19.268Z,12.62
2018-09-18T05:26:19.638Z,12.65
2018-09-18T05:27:19.221Z,12.62
2018-09-18T05:28:19.182Z,12.65
2018-09-18T05:29:19.157Z,12.61
2018-09-18T05:30:19.142Z,12.54
2018-09-18T05:31:20.697Z,12.63
2018-09-18T05:32:19.396Z,12.51
2018-09-18T05:33:19.408Z,12.53
2018-09-18T05:34:19.769Z,12.51
2018-09-18T05:35:18.995Z,12.53
2018-09-18T05:36:19.042Z,12.50
2018-09-18T05:37:19.492Z,12.59
2018-09-18T05:38:19.395Z,12.62
2018-09-18T05:39:18.967Z,12.63
2018-09-18T05:40:19.161Z,12.61
2018-09-18T05:42:19.231Z,12.50
2018-09-18T05:44:19.509Z,12.48
2018-09-18T05:45:19.240Z,12.47
2018-09-18T05:46:18.827Z,12.38
2018-09-18T05:50:19.094Z,12.86
2018-09-18T05:51:18.821Z,13.08
2018-09-18T05:52:19.678Z,13.27
2018-09-18T05:53:18.752Z,13.55
2018-09-18T05:54:18.684Z,13.75
2018-09-18T05:55:18.791Z,14.01
2018-09-18T05:56:18.991Z,14.22
2018-09-18T05:57:18.764Z,14.36
2018-09-18T05:58:18.652Z,14.59
2018-09-18T05:59:18.753Z,14.77
2018-09-18T06:00:18.714Z,15.05
2018-09-18T06:01:18.721Z,15.11
2018-09-18T06:02:19.088Z,15.29
2018-09-18T06:03:18.587Z,15.41
2018-09-18T06:04:18.551Z,15.43
2018-09-18T06:05:19.075Z,15.47
2018-09-18T06:06:18.525Z,15.44
2018-09-18T06:07:18.925Z,15.59
2018-09-18T06:08:18.876Z,15.65
2018-09-18T06:09:19.199Z,15.65
2018-09-18T06:10:20.513Z,15.81
2018-09-18T06:11:18.909Z,16.00
2018-09-18T06:12:18.436Z,16.06
2018-09-18T06:13:18.454Z,16.21
2018-09-18T06:17:18.333Z,16.83
2018-09-18T06:18:18.279Z,16.91
2018-09-18T06:20:18.335Z,17.13
2018-09-18T06:22:18.584Z,17.19
2018-09-18T06:23:18.195Z,17.22
2018-09-18T06:24:18.181Z,17.24
2018-09-18T06:25:18.186Z,17.32
2018-09-18T06:26:18.309Z,17.37
2018-09-18T06:27:18.134Z,17.43
2018-09-18T06:28:18.467Z,17.46
2018-09-18T06:30:18.240Z,17.59
2018-09-18T06:31:18.126Z,17.59
2018-09-18T06:32:18.357Z,17.69
2018-09-18T06:33:18.039Z,17.59
2018-09-18T06:34:18.383Z,17.68
2018-09-18T06:35:18.062Z,17.73
2018-09-18T06:36:18.052Z,17.73
2018-09-18T06:37:17.988Z,17.83
2018-09-18T06:38:18.028Z,17.91
2018-09-18T06:39:18.049Z,17.96
2018-09-18T06:40:18.287Z,18.08
2018-09-18T06:41:17.981Z,18.20
2018-09-18T06:42:18.055Z,18.17
2018-09-18T06:43:17.985Z,18.30
2018-09-18T06:44:17.971Z,18.46
2018-09-18T06:45:18.017Z,18.42
2018-09-18T06:47:17.840Z,18.64
2018-09-18T06:48:17.844Z,18.68
2018-09-18T06:49:17.864Z,18.64
2018-09-18T06:50:18.048Z,18.79
2018-09-18T06:51:17.833Z,18.76
2018-09-18T06:52:18.118Z,18.86
2018-09-18T06:53:17.750Z,18.83
2018-09-18T06:54:17.823Z,19.12
2018-09-18T06:55:17.778Z,19.19
2018-09-18T06:56:17.895Z,19.20
2018-09-18T06:57:17.744Z,19.32
2018-09-18T06:58:18.163Z,19.35
2018-09-18T06:59:17.775Z,19.49
2018-09-18T07:00:17.759Z,19.54
2018-09-18T07:01:17.691Z,19.52
2018-09-18T07:02:17.821Z,19.52
2018-09-18T07:04:17.953Z,19.75
2018-09-18T07:05:17.597Z,19.90
2018-09-18T07:06:17.575Z,20.05
2018-09-18T07:07:17.590Z,20.04
2018-09-18T07:08:17.843Z,20.17
2018-09-18T07:09:17.534Z,20.29
2018-09-18T07:10:17.888Z,20.37
2018-09-18T07:11:17.498Z,20.44
2018-09-18T07:13:17.473Z,20.56
2018-09-18T07:14:17.513Z,20.52
2018-09-18T07:15:17.461Z,20.68
2018-09-18T07:16:17.789Z,20.73
2018-09-18T07:17:17.430Z,20.82
2018-09-18T07:18:17.415Z,20.86
2018-09-18T07:19:17.408Z,21.03
2018-09-18T07:20:17.439Z,21.23
2018-09-18T07:21:17.383Z,21.34
2018-09-18T07:23:17.398Z,21.43
2018-09-18T07:24:18.229Z,21.51
2018-09-18T07:25:17.328Z,21.53
2018-09-18T07:26:17.376Z,21.56
2018-09-18T07:27:17.373Z,21.63
2018-09-18T07:28:17.639Z,21.74
2018-09-18T07:29:17.302Z,21.88
2018-09-18T07:30:17.342Z,21.93
2018-09-18T07:31:17.332Z,22.04
2018-09-18T07:32:17.335Z,22.01
2018-09-18T07:34:17.696Z,22.23
2018-09-18T07:35:17.323Z,22.33
2018-09-18T07:36:17.250Z,22.30
2018-09-18T07:37:17.231Z,22.44
2018-09-18T07:38:17.310Z,22.56
2018-09-18T07:39:17.233Z,22.61
2018-09-18T07:40:18.406Z,22.53
2018-09-18T07:41:17.180Z,22.59
2018-09-18T07:42:18.262Z,22.68
2018-09-18T07:43:17.191Z,22.73
2018-09-18T07:44:17.541Z,22.74
2018-09-18T07:45:17.440Z,22.89
2018-09-18T07:46:17.415Z,22.98
2018-09-18T07:47:17.241Z,22.99
2018-09-18T07:48:17.132Z,23.14
2018-09-18T07:49:17.176Z,23.34
2018-09-18T07:50:17.703Z,23.25
2018-09-18T07:51:17.088Z,23.36
2018-09-18T07:52:17.413Z,23.51
2018-09-18T07:53:17.041Z,23.52
2018-09-18T07:54:16.970Z,23.66
2018-09-18T07:55:17.086Z,23.64
2018-09-18T07:56:17.108Z,23.61
2018-09-18T07:57:16.979Z,23.70
2018-09-18T07:58:17.283Z,23.69
2018-09-18T07:59:17.034Z,23.82
2018-09-18T08:01:16.933Z,23.86
2018-09-18T08:02:17.088Z,23.82
2018-09-18T08:03:17.021Z,23.84
2018-09-18T08:04:17.241Z,23.86
2018-09-18T08:05:16.856Z,23.89
2018-09-18T08:06:16.910Z,24.03
2018-09-18T08:07:16.885Z,24.10
2018-09-18T08:08:16.921Z,24.04
2018-09-18T08:10:17.213Z,24.22
2018-09-18T08:11:16.848Z,24.38
2018-09-18T08:12:16.781Z,24.41
2018-09-18T08:13:16.824Z,24.45
2018-09-18T08:14:16.988Z,24.56
2018-09-18T08:15:16.855Z,24.58
2018-09-18T08:16:17.130Z,24.48
2018-09-18T08:17:16.789Z,24.58
2018-09-18T08:18:16.835Z,24.55
2018-09-18T08:19:16.847Z,24.56
2018-09-18T08:20:16.755Z,24.62
2018-09-18T08:21:16.913Z,24.75
2018-09-18T08:22:17.185Z,24.79
2018-09-18T08:23:16.981Z,24.78
2018-09-18T08:24:16.658Z,24.66
2018-09-18T08:25:16.794Z,24.66
2018-09-18T08:26:16.818Z,24.81
2018-09-18T08:27:16.672Z,24.86
2018-09-18T08:28:16.969Z,24.85
2018-09-18T08:29:16.716Z,24.97
2018-09-18T08:30:16.601Z,24.91
2018-09-18T08:31:16.670Z,24.97
2018-09-18T08:32:16.969Z,25.16
2018-09-18T08:33:16.579Z,25.11
2018-09-18T08:34:16.903Z,25.16
2018-09-18T08:35:16.689Z,25.26
2018-09-18T08:36:16.626Z,25.49
2018-09-18T08:37:16.628Z,25.67
2018-09-18T08:38:16.570Z,25.63
2018-09-18T08:39:16.531Z,25.63
2018-09-18T08:40:17.769Z,25.67
2018-09-18T08:41:16.513Z,25.73
2018-09-18T08:42:16.638Z,25.90
2018-09-18T08:43:16.842Z,25.75
2018-09-18T08:44:16.667Z,25.68
2018-09-18T08:45:16.507Z,25.61
2018-09-18T08:46:16.887Z,25.70
2018-09-18T08:47:16.594Z,25.74
2018-09-18T08:48:16.574Z,25.78
2018-09-18T08:49:16.449Z,25.77
2018-09-18T08:50:16.536Z,25.92
2018-09-18T08:51:16.456Z,25.74
2018-09-18T08:52:16.787Z,25.92
2018-09-18T08:53:16.547Z,25.85
2018-09-18T08:54:16.927Z,25.93
2018-09-18T08:55:16.412Z,25.98
2018-09-18T08:56:16.553Z,26.16
2018-09-18T08:57:16.902Z,26.10
2018-09-18T08:58:16.779Z,26.26
2018-09-18T08:59:16.320Z,26.15
2018-09-18T09:00:16.304Z,26.24
2018-09-18T09:01:16.351Z,26.38
2018-09-18T09:02:17.097Z,26.43
2018-09-18T09:03:16.593Z,26.33
2018-09-18T09:04:18.611Z,26.57
2018-09-18T09:05:16.535Z,26.73
2018-09-18T09:06:16.387Z,26.73
2018-09-18T09:07:16.705Z,26.63
2018-09-18T09:09:16.444Z,26.56
2018-09-18T09:10:16.654Z,26.52
2018-09-18T09:11:16.330Z,26.80
2018-09-18T09:12:16.296Z,26.95
2018-09-18T09:13:16.360Z,27.05
2018-09-18T09:18:16.316Z,27.27
2018-09-18T09:19:16.219Z,27.30
2018-09-18T09:20:16.364Z,27.26
2018-09-18T09:21:16.246Z,27.42
2018-09-18T09:22:16.589Z,27.44
2018-09-18T09:23:16.252Z,27.57
2018-09-18T09:25:16.383Z,27.58
2018-09-18T09:26:16.297Z,27.78
2018-09-18T09:27:16.186Z,27.76
2018-09-18T09:28:16.472Z,27.68
2018-09-18T09:29:16.171Z,27.90
2018-09-18T09:30:16.237Z,28.01
2018-09-18T09:31:16.130Z,28.17
2018-09-18T09:32:16.230Z,28.27
2018-09-18T09:36:16.130Z,28.35
2018-09-18T09:37:16.204Z,28.31
2018-09-18T09:38:16.168Z,28.46
2018-09-18T09:39:16.661Z,28.54
2018-09-18T09:40:16.907Z,28.56
2018-09-18T09:41:16.055Z,28.47
2018-09-18T09:42:16.249Z,28.49
2018-09-18T09:43:16.276Z,28.49
2018-09-18T09:45:16.286Z,28.81
2018-09-18T09:47:16.617Z,29.18
2018-09-18T09:48:16.012Z,29.00
2018-09-18T09:49:16.072Z,29.33
2018-09-18T09:50:16.323Z,29.24
2018-09-18T09:51:16.110Z,29.37
2018-09-18T09:54:16.273Z,29.46
2018-09-18T09:55:15.979Z,29.36
2018-09-18T09:57:15.958Z,29.13
2018-09-18T09:58:16.051Z,29.13
2018-09-18T09:59:15.994Z,29.10
2018-09-18T10:00:16.264Z,29.36
2018-09-18T10:02:16.017Z,29.49
2018-09-18T10:03:15.940Z,29.61
2018-09-18T10:04:15.930Z,29.58
2018-09-18T10:06:16.251Z,29.87
2018-09-18T10:08:15.916Z,29.91
2018-09-18T10:09:15.931Z,30.00
2018-09-18T10:10:15.947Z,29.93
2018-09-18T10:12:16.320Z,30.15
2018-09-18T10:13:15.885Z,29.99
2018-09-18T10:16:15.888Z,30.45
2018-09-18T10:17:15.844Z,30.60
2018-09-18T10:18:16.207Z,30.70
2018-09-18T10:19:15.967Z,30.59
2018-09-18T10:20:15.964Z,30.30
2018-09-18T10:21:16.161Z,30.29
2018-09-18T10:23:15.843Z,30.59
2018-09-18T10:25:15.946Z,30.52
2018-09-18T10:27:15.833Z,30.77
2018-09-18T10:28:15.811Z,30.62
2018-09-18T10:29:15.790Z,30.83
2018-09-18T10:30:16.081Z,31.02
2018-09-18T10:31:15.837Z,30.88
2018-09-18T10:32:15.837Z,31.01
2018-09-18T10:34:15.836Z,31.17
2018-09-18T10:35:15.839Z,30.78
2018-09-18T10:37:15.867Z,31.37
2018-09-18T10:39:15.946Z,31.94
2018-09-18T10:40:15.937Z,31.95
2018-09-18T10:41:16.136Z,32.04
2018-09-18T10:43:15.877Z,31.61
2018-09-18T10:45:15.874Z,31.64
2018-09-18T10:46:15.864Z,31.71
2018-09-18T10:47:15.850Z,31.49
2018-09-18T10:48:16.193Z,31.75
2018-09-18T10:49:15.866Z,31.75
2018-09-18T10:50:15.832Z,31.61
2018-09-18T10:51:15.852Z,31.63
2018-09-18T10:52:15.969Z,31.51
2018-09-18T10:53:15.811Z,31.74
2018-09-18T10:54:16.890Z,31.76
2018-09-18T10:55:15.853Z,31.54
2018-09-18T10:56:15.869Z,31.63
2018-09-18T10:58:15.769Z,31.05
2018-09-18T10:59:15.807Z,31.14
2018-09-18T11:00:16.081Z,31.42
2018-09-18T11:01:15.823Z,31.46
2018-09-18T11:02:15.989Z,31.74
2018-09-18T11:03:15.908Z,31.76
2018-09-18T11:04:15.842Z,31.89
2018-09-18T11:05:15.829Z,32.26
2018-09-18T11:06:16.132Z,32.43
2018-09-18T11:07:15.898Z,32.31
2018-09-18T11:08:16.046Z,32.19
2018-09-18T11:09:15.971Z,31.79
2018-09-18T11:10:17.076Z,32.01
2018-09-18T11:11:15.853Z,32.28
2018-09-18T11:13:16.142Z,32.42
2018-09-18T11:14:15.822Z,31.91
2018-09-18T11:15:15.905Z,31.76
2018-09-18T11:16:15.885Z,31.99
2018-09-18T11:17:15.816Z,32.08
2018-09-18T11:18:15.913Z,31.71
2018-09-18T11:19:16.209Z,31.87
2018-09-18T11:20:15.833Z,31.44
2018-09-18T11:21:15.978Z,31.61
2018-09-18T11:22:15.984Z,31.84
2018-09-18T11:23:15.777Z,32.06
2018-09-18T11:24:15.832Z,32.17
2018-09-18T11:25:16.076Z,32.41
2018-09-18T11:26:15.913Z,32.53
2018-09-18T11:27:15.810Z,32.50
2018-09-18T11:28:15.772Z,32.53
2018-09-18T11:29:16.081Z,32.95
2018-09-18T11:30:15.787Z,32.72
2018-09-18T11:31:16.149Z,32.90
2018-09-18T11:32:15.812Z,32.60
2018-09-18T11:33:16.169Z,32.75
2018-09-18T11:34:15.792Z,32.80
2018-09-18T11:36:15.834Z,33.39
2018-09-18T11:37:16.137Z,33.29
2018-09-18T11:38:15.819Z,33.27
2018-09-18T11:39:16.234Z,33.22
2018-09-18T11:40:15.780Z,33.33
2018-09-18T11:41:15.764Z,33.16
2018-09-18T11:42:15.831Z,32.76
2018-09-18T11:43:16.145Z,32.57
2018-09-18T11:44:15.840Z,32.57
2018-09-18T11:45:15.817Z,32.55
2018-09-18T11:46:15.819Z,32.65
2018-09-18T11:47:15.761Z,32.61
2018-09-18T11:48:15.818Z,32.79
2018-09-18T11:49:16.117Z,32.61
2018-09-18T11:51:15.982Z,32.48
2018-09-18T11:52:15.801Z,32.88
2018-09-18T11:53:15.790Z,32.79
2018-09-18T11:54:15.777Z,32.95
2018-09-18T11:57:15.930Z,33.26
2018-09-18T11:58:15.846Z,33.24
2018-09-18T11:59:15.894Z,33.24
2018-09-18T12:00:15.771Z,32.97
2018-09-18T12:01:16.708Z,32.82
2018-09-18T12:02:15.948Z,33.41
2018-09-18T12:03:16.036Z,33.33
2018-09-18T12:04:15.887Z,33.06
2018-09-18T12:05:15.940Z,33.24
2018-09-18T12:06:15.804Z,33.47
2018-09-18T12:07:16.168Z,33.27
2018-09-18T12:08:15.831Z,33.49
2018-09-18T12:09:16.018Z,33.51
2018-09-18T12:10:15.830Z,33.39
2018-09-18T12:11:15.925Z,32.53
2018-09-18T12:12:15.934Z,32.27
2018-09-18T12:13:16.092Z,32.57
2018-09-18T12:15:15.933Z,33.20
2018-09-18T12:16:15.813Z,33.35
2018-09-18T12:17:15.842Z,33.51
2018-09-18T12:18:15.840Z,33.51
2018-09-18T12:19:16.047Z,33.74
2018-09-18T12:20:15.998Z,34.19
2018-09-18T12:21:15.841Z,33.79
2018-09-18T12:22:15.869Z,33.81
2018-09-18T12:23:15.849Z,33.71
2018-09-18T12:25:15.841Z,34.28
2018-09-18T12:26:15.785Z,34.38
2018-09-18T12:27:15.953Z,34.29
2018-09-18T12:28:15.839Z,34.47
2018-09-18T12:30:16.191Z,34.83
2018-09-18T12:31:16.187Z,34.50
2018-09-18T12:32:15.840Z,34.01
2018-09-18T12:33:15.864Z,33.92
2018-09-18T12:34:15.789Z,34.22
2018-09-18T12:35:15.882Z,34.38
2018-09-18T12:36:15.790Z,34.15
2018-09-18T12:37:16.147Z,33.88
2018-09-18T12:38:15.864Z,33.79
2018-09-18T12:39:15.947Z,33.97
2018-09-18T12:40:15.959Z,33.74
2018-09-18T12:41:15.798Z,34.03
2018-09-18T12:42:16.006Z,34.34
2018-09-18T12:43:16.147Z,34.45
2018-09-18T12:44:15.815Z,34.52
2018-09-18T12:45:15.850Z,34.53
2018-09-18T12:46:16.127Z,34.19
2018-09-18T12:47:15.912Z,33.78
2018-09-18T12:48:15.795Z,33.74
2018-09-18T12:49:16.205Z,33.57
2018-09-18T12:50:15.964Z,34.01
2018-09-18T12:51:15.956Z,34.29
2018-09-18T12:52:15.870Z,34.23
2018-09-18T12:53:15.886Z,34.41
2018-09-18T12:54:15.943Z,34.56
2018-09-18T12:55:16.159Z,34.76
2018-09-18T12:57:16.032Z,34.30
2018-09-18T12:58:16.241Z,34.60
2018-09-18T12:59:15.815Z,34.80
2018-09-18T13:00:15.904Z,34.48
2018-09-18T13:01:16.257Z,34.18
2018-09-18T13:02:15.861Z,34.16
2018-09-18T13:03:15.883Z,34.57
2018-09-18T13:04:15.818Z,34.79
2018-09-18T13:05:15.801Z,34.42
2018-09-18T13:06:15.966Z,34.50
2018-09-18T13:07:16.224Z,34.35
2018-09-18T13:08:15.982Z,33.78
2018-09-18T13:09:15.872Z,34.29
2018-09-18T13:10:15.819Z,34.57
2018-09-18T13:11:15.857Z,34.35
2018-09-18T13:12:15.849Z,34.35
2018-09-18T13:13:16.443Z,34.72
2018-09-18T13:14:15.985Z,34.42
2018-09-18T13:15:16.186Z,34.79
2018-09-18T13:16:15.918Z,34.95
2018-09-18T13:17:15.895Z,35.26
2018-09-18T13:18:15.886Z,34.98
2018-09-18T13:19:16.280Z,34.19
2018-09-18T13:21:16.189Z,34.97
2018-09-18T13:22:15.852Z,35.09
2018-09-18T13:23:15.878Z,34.87
2018-09-18T13:24:15.793Z,35.07
2018-09-18T13:25:16.166Z,34.56
2018-09-18T13:26:15.808Z,34.98
2018-09-18T13:27:15.891Z,35.26
2018-09-18T13:28:16.096Z,35.53
2018-09-18T13:29:15.915Z,35.35
2018-09-18T13:30:15.899Z,34.56
2018-09-18T13:31:16.124Z,34.35
2018-09-18T13:32:15.844Z,34.32
2018-09-18T13:33:15.957Z,34.45
2018-09-18T13:34:15.889Z,34.76
2018-09-18T13:35:16.092Z,34.32
2018-09-18T13:36:16.602Z,33.91
2018-09-18T13:37:16.141Z,34.28
2018-09-18T13:38:15.906Z,34.47
2018-09-18T13:39:16.049Z,34.57
2018-09-18T13:40:16.810Z,34.28
2018-09-18T13:41:15.869Z,34.38
2018-09-18T13:42:15.806Z,34.52
2018-09-18T13:43:16.298Z,34.18
2018-09-18T13:44:15.798Z,34.37
2018-09-18T13:45:15.895Z,34.29
2018-09-18T13:46:16.035Z,34.40
2018-09-18T13:47:15.898Z,34.41
2018-09-18T13:48:15.913Z,34.78
2018-09-18T13:49:16.260Z,34.66
2018-09-18T13:50:15.980Z,34.40
2018-09-18T13:51:15.835Z,34.22
2018-09-18T13:52:16.198Z,34.60
2018-09-18T13:53:15.851Z,34.30
2018-09-18T13:54:15.867Z,34.64
2018-09-18T13:55:16.339Z,34.98
2018-09-18T13:56:16.228Z,34.80
2018-09-18T13:57:16.140Z,34.53
2018-09-18T13:58:15.793Z,34.20
2018-09-18T13:59:15.845Z,34.22
2018-09-18T14:00:15.865Z,34.19
2018-09-18T14:01:16.314Z,34.34
2018-09-18T14:02:15.830Z,34.35
2018-09-18T14:03:15.829Z,34.25
2018-09-18T14:04:15.883Z,34.41
2018-09-18T14:05:15.789Z,34.18
2018-09-18T14:06:15.830Z,34.22
2018-09-18T14:07:16.124Z,34.37
2018-09-18T14:09:15.989Z,34.06
2018-09-18T14:10:15.936Z,34.35
2018-09-18T14:11:15.848Z,34.18
2018-09-18T14:12:15.980Z,34.29
2018-09-18T14:13:16.110Z,34.55
2018-09-18T14:14:15.786Z,34.48
2018-09-18T14:16:15.811Z,34.29